createdAt,value
2022-11-12T00:01:55.557Z,5.42
2022-11-12T00:05:06.755Z,5.39
2022-11-12T00:08:12.465Z,5.37
2022-11-12T00:11:18.204Z,5.26
2022-11-12T00:14:23.375Z,5.16
2022-11-12T00:17:29.149Z,5.06
2022-11-12T00:20:36.169Z,5.02
2022-11-12T00:23:42.007Z,4.98
2022-11-12T00:26:47.778Z,4.96
2022-11-12T00:29:53.289Z,4.94
2022-11-12T00:33:02.672Z,4.94
2022-11-12T00:36:09.815Z,4.94
2022-11-12T00:39:15.390Z,4.89
2022-11-12T00:42:20.833Z,4.91
2022-11-12T00:45:26.466Z,4.91
2022-11-12T00:48:32.128Z,5.02
2022-11-12T00:51:39.830Z,4.97
2022-11-12T00:54:45.753Z,4.84
2022-11-12T00:57:51.411Z,4.76
2022-11-12T01:00:57.086Z,4.72
2022-11-12T01:04:03.000Z,4.63
2022-11-12T01:07:09.950Z,4.69
2022-11-12T01:10:16.268Z,4.47
2022-11-12T01:13:21.632Z,4.67
2022-11-12T01:16:28.808Z,4.66
2022-11-12T01:19:34.565Z,4.61
2022-11-12T01:22:41.560Z,4.57
2022-11-12T01:25:47.292Z,4.48
2022-11-12T01:28:53.199Z,4.60
2022-11-12T01:31:58.475Z,4.60
2022-11-12T01:35:04.498Z,4.52
2022-11-12T01:38:11.357Z,4.53
2022-11-12T01:41:19.560Z,4.50
2022-11-12T01:44:27.089Z,4.46
2022-11-12T01:47:35.745Z,4.46
2022-11-12T01:50:42.432Z,4.45
2022-11-12T01:53:52.679Z,4.44
2022-11-12T01:56:58.919Z,4.44
2022-11-12T02:00:08.872Z,4.45
2022-11-12T02:03:18.604Z,4.41
2022-11-12T02:06:25.772Z,4.42
2022-11-12T02:09:33.472Z,4.38
2022-11-12T02:12:57.244Z,4.36
2022-11-12T02:16:04.195Z,4.30
2022-11-12T02:19:12.530Z,4.30
2022-11-12T02:22:19.518Z,4.26
2022-11-12T02:25:25.958Z,4.09
2022-11-12T02:28:32.785Z,4.23
2022-11-12T02:31:38.674Z,4.19
2022-11-12T02:34:44.126Z,4.15
2022-11-12T02:37:51.485Z,4.14
2022-11-12T02:40:57.102Z,4.11
2022-11-12T02:44:02.650Z,4.11
2022-11-12T02:47:08.157Z,4.10
2022-11-12T02:50:13.941Z,4.12
2022-11-12T02:53:21.377Z,4.12
2022-11-12T02:56:26.928Z,4.07
2022-11-12T02:59:32.584Z,4.08
2022-11-12T03:02:43.003Z,4.04
2022-11-12T03:05:56.279Z,4.03
2022-11-12T03:09:03.097Z,3.99
2022-11-12T03:12:08.853Z,3.92
2022-11-12T03:15:14.406Z,3.91
2022-11-12T03:18:20.004Z,3.82
2022-11-12T03:21:25.784Z,3.78
2022-11-12T03:24:32.454Z,3.76
2022-11-12T03:27:38.278Z,3.71
2022-11-12T03:30:45.153Z,3.68
2022-11-12T03:33:50.745Z,3.70
2022-11-12T03:36:56.671Z,3.66
2022-11-12T03:40:04.244Z,3.65
2022-11-12T03:43:10.203Z,3.61
2022-11-12T03:46:15.984Z,3.51
2022-11-12T03:49:21.599Z,3.48
2022-11-12T03:52:27.328Z,3.42
2022-11-12T03:55:34.300Z,3.37
2022-11-12T03:58:39.863Z,3.35
2022-11-12T04:01:45.578Z,3.26
2022-11-12T04:05:08.888Z,3.24
2022-11-12T04:08:34.245Z,3.22
2022-11-12T04:11:41.372Z,3.27
2022-11-12T04:14:45.941Z,3.36
2022-11-12T04:18:09.170Z,3.44
2022-11-12T04:21:34.612Z,3.56
2022-11-12T04:24:59.201Z,3.68
2022-11-12T04:28:06.254Z,3.81
2022-11-12T04:31:10.697Z,3.90
2022-11-12T04:34:31.617Z,4.06
2022-11-12T04:37:47.744Z,4.15
2022-11-12T04:41:10.689Z,4.27
2022-11-12T04:44:35.248Z,4.48
2022-11-12T04:47:43.987Z,4.56
2022-11-12T04:50:52.140Z,4.63
2022-11-12T04:53:57.497Z,4.66
2022-11-12T04:57:03.083Z,4.78
2022-11-12T05:00:12.659Z,4.87
2022-11-12T05:03:22.387Z,4.93
2022-11-12T05:06:47.383Z,5.02
2022-11-12T05:09:53.375Z,5.07
2022-11-12T05:12:59.166Z,5.12
2022-11-12T05:16:07.480Z,5.08
2022-11-12T05:19:12.844Z,5.21
2022-11-12T05:22:42.074Z,5.28
2022-11-12T05:25:44.768Z,5.32
2022-11-12T05:28:50.333Z,5.37
2022-11-12T05:31:57.760Z,4.93
2022-11-12T05:35:03.338Z,5.48
2022-11-12T05:38:09.370Z,5.59
2022-11-12T05:41:19.908Z,5.57
2022-11-12T05:44:25.767Z,5.70
2022-11-12T05:47:32.782Z,5.66
2022-11-12T05:50:51.186Z,5.75
2022-11-12T05:54:03.762Z,5.61
2022-11-12T05:57:09.457Z,5.50
2022-11-12T06:00:15.973Z,5.40
2022-11-12T06:03:22.768Z,5.34
2022-11-12T06:06:28.484Z,5.31
2022-11-12T06:09:34.396Z,5.33
2022-11-12T06:12:40.224Z,5.40
2022-11-12T06:15:46.363Z,5.50
2022-11-12T06:18:54.039Z,5.62
2022-11-12T06:21:59.854Z,5.68
2022-11-12T06:25:05.988Z,5.69
2022-11-12T06:28:11.659Z,5.86
2022-11-12T06:31:17.884Z,5.86
2022-11-12T06:34:24.929Z,5.81
2022-11-12T06:37:30.637Z,5.83
2022-11-12T06:40:36.719Z,5.62
2022-11-12T06:43:42.876Z,6.21
2022-11-12T06:46:48.565Z,6.14
2022-11-12T06:49:55.836Z,6.25
2022-11-12T06:53:01.747Z,6.43
2022-11-12T06:56:09.916Z,6.34
2022-11-12T06:59:15.393Z,6.37
2022-11-12T07:02:21.207Z,6.48
2022-11-12T07:05:28.088Z,6.28
2022-11-12T07:08:33.722Z,6.48
2022-11-12T07:11:39.356Z,6.46
2022-11-12T07:14:44.974Z,6.67
2022-11-12T07:17:50.692Z,6.55
2022-11-12T07:21:01.824Z,6.46
2022-11-12T07:24:09.730Z,6.66
2022-11-12T07:27:15.199Z,6.78
2022-11-12T07:30:20.861Z,6.87
2022-11-12T07:33:27.235Z,6.65
2022-11-12T07:36:34.267Z,6.64
2022-11-12T07:39:40.223Z,6.70
2022-11-12T07:42:46.325Z,6.87
2022-11-12T07:45:52.021Z,6.89
2022-11-12T07:48:57.551Z,7.12
2022-11-12T07:52:10.374Z,7.08
2022-11-12T07:55:15.930Z,7.37
2022-11-12T07:58:21.801Z,7.31
2022-11-12T08:01:31.943Z,7.26
2022-11-12T08:04:37.383Z,7.41
2022-11-12T08:07:44.648Z,7.59
2022-11-12T08:11:01.728Z,7.75
2022-11-12T08:14:11.111Z,8.12
2022-11-12T08:17:31.438Z,8.28
2022-11-12T08:20:38.843Z,8.46
2022-11-12T08:23:46.801Z,8.60
2022-11-12T08:26:52.483Z,8.60
2022-11-12T08:29:58.954Z,8.67
2022-11-12T08:33:07.025Z,8.64
2022-11-12T08:36:14.594Z,8.95
2022-11-12T08:39:22.420Z,9.16
2022-11-12T08:42:28.410Z,9.22
2022-11-12T08:45:36.438Z,9.14
2022-11-12T08:48:41.678Z,9.10
2022-11-12T08:51:47.047Z,8.98
2022-11-12T08:54:56.009Z,8.94
2022-11-12T08:58:03.127Z,8.81
2022-11-12T09:01:09.317Z,8.65
2022-11-12T09:04:14.904Z,8.90
2022-11-12T09:07:48.060Z,8.85
2022-11-12T09:10:47.519Z,8.76
2022-11-12T09:13:54.007Z,8.72
2022-11-12T09:16:59.431Z,8.85
2022-11-12T09:20:05.454Z,8.98
2022-11-12T09:23:13.425Z,8.97
2022-11-12T09:26:20.287Z,9.00
2022-11-12T09:29:26.303Z,9.36
2022-11-12T09:32:31.563Z,9.29
2022-11-12T09:35:37.173Z,9.33
2022-11-12T09:38:42.816Z,9.66
2022-11-12T09:41:50.074Z,9.69
2022-11-12T09:45:01.758Z,9.57
2022-11-12T09:48:13.896Z,9.84
2022-11-12T09:51:26.501Z,9.96
2022-11-12T09:54:33.768Z,9.98
2022-11-12T09:57:40.862Z,10.04
2022-11-12T10:00:55.363Z,10.38
2022-11-12T10:04:18.796Z,10.28
2022-11-12T10:07:36.984Z,10.31
2022-11-12T10:10:47.776Z,10.25
2022-11-12T10:14:07.023Z,10.16
2022-11-12T10:17:19.875Z,10.17
2022-11-12T10:20:32.527Z,10.27
2022-11-12T10:23:44.948Z,10.51
2022-11-12T10:26:53.387Z,10.78
2022-11-12T10:30:04.347Z,10.65
2022-11-12T10:33:15.447Z,10.85
2022-11-12T10:36:27.812Z,10.93
2022-11-12T10:39:36.150Z,11.39
2022-11-12T10:42:59.215Z,11.80
2022-11-12T10:46:20.151Z,11.60
2022-11-12T10:49:26.405Z,11.28
2022-11-12T10:52:32.292Z,11.11
2022-11-12T10:55:39.666Z,11.02
2022-11-12T10:58:47.150Z,11.10
2022-11-12T11:01:58.864Z,11.24
2022-11-12T11:05:30.346Z,11.39
2022-11-12T11:08:40.007Z,11.35
2022-11-12T11:11:53.699Z,11.37
2022-11-12T11:15:19.924Z,11.26
2022-11-12T11:18:27.596Z,11.34
2022-11-12T11:21:54.482Z,11.44
2022-11-12T11:25:19.080Z,11.47
2022-11-12T11:28:34.241Z,11.48
2022-11-12T11:31:47.466Z,11.93
2022-11-12T11:35:06.621Z,12.07
2022-11-12T11:38:27.816Z,12.54
2022-11-12T11:42:04.019Z,12.84
2022-11-12T11:45:17.182Z,12.87
2022-11-12T11:48:36.264Z,13.00
2022-11-12T11:51:52.731Z,13.14
2022-11-12T11:55:20.107Z,13.36
2022-11-12T11:58:46.833Z,13.20
2022-11-12T12:02:12.200Z,13.42
2022-11-12T12:05:33.989Z,13.49
2022-11-12T12:08:59.272Z,13.44
2022-11-12T12:12:15.439Z,13.67
2022-11-12T12:15:35.692Z,13.41
2022-11-12T12:18:49.974Z,13.24
2022-11-12T12:21:58.216Z,13.22
2022-11-12T12:25:12.306Z,13.23
2022-11-12T12:28:28.731Z,13.31
2022-11-12T12:31:39.953Z,13.25
2022-11-12T12:34:49.804Z,13.15
2022-11-12T12:38:04.232Z,13.24
2022-11-12T12:41:17.985Z,13.03
2022-11-12T12:44:43.838Z,13.01
2022-11-12T12:47:51.135Z,13.01
2022-11-12T12:50:57.169Z,13.07
2022-11-12T12:54:02.630Z,13.03
2022-11-12T12:57:38.562Z,13.05
2022-11-12T13:00:49.354Z,12.93
2022-11-12T13:03:58.722Z,12.73
2022-11-12T13:07:09.904Z,12.84
2022-11-12T13:10:50.823Z,12.60
2022-11-12T13:13:57.816Z,12.37
2022-11-12T13:17:04.684Z,12.39
2022-11-12T13:20:38.820Z,12.33
2022-11-12T13:24:00.274Z,12.13
2022-11-12T13:27:05.729Z,12.17
2022-11-12T13:30:51.443Z,12.13
2022-11-12T13:33:57.181Z,11.94
2022-11-12T13:37:05.356Z,11.90
2022-11-12T13:40:15.389Z,11.97
2022-11-12T13:43:32.647Z,11.92
2022-11-12T13:46:39.969Z,11.80
2022-11-12T13:49:47.106Z,11.71
2022-11-12T13:52:52.923Z,11.66
2022-11-12T13:55:58.443Z,11.54
2022-11-12T13:59:14.434Z,11.61
2022-11-12T14:02:26.158Z,11.66
2022-11-12T14:05:34.118Z,11.57
2022-11-12T14:09:07.967Z,11.48
2022-11-12T14:12:30.613Z,11.43
2022-11-12T14:15:55.655Z,11.33
2022-11-12T14:19:21.399Z,11.30
2022-11-12T14:22:26.797Z,11.24
2022-11-12T14:25:32.650Z,11.04
2022-11-12T14:28:39.821Z,10.89
2022-11-12T14:31:45.913Z,10.87
2022-11-12T14:34:52.555Z,10.74
2022-11-12T14:38:01.930Z,10.59
2022-11-12T14:41:10.954Z,10.52
2022-11-12T14:44:20.544Z,10.38
2022-11-12T14:47:26.205Z,10.31
2022-11-12T14:50:40.270Z,10.19
2022-11-12T14:53:50.405Z,10.10
2022-11-12T14:56:56.452Z,9.97
2022-11-12T15:00:19.186Z,9.94
2022-11-12T15:03:27.565Z,9.84
2022-11-12T15:06:36.048Z,9.66
2022-11-12T15:09:41.441Z,9.52
2022-11-12T15:12:46.618Z,9.37
2022-11-12T15:15:55.678Z,9.22
2022-11-12T15:19:15.107Z,8.57
2022-11-12T15:22:23.785Z,9.03
2022-11-12T15:25:32.102Z,9.06
2022-11-12T15:28:40.691Z,9.00
2022-11-12T15:31:48.071Z,8.85
2022-11-12T15:34:53.739Z,8.69
2022-11-12T15:38:03.262Z,8.53
2022-11-12T15:41:23.221Z,8.43
2022-11-12T15:44:34.720Z,8.31
2022-11-12T15:47:40.442Z,8.25
2022-11-12T15:50:47.052Z,8.19
2022-11-12T15:53:54.153Z,8.15
2022-11-12T15:56:59.890Z,8.07
2022-11-12T16:00:08.899Z,8.08
2022-11-12T16:03:17.267Z,8.02
2022-11-12T16:06:22.745Z,7.98
2022-11-12T16:09:29.729Z,7.90
2022-11-12T16:12:36.086Z,7.79
2022-11-12T16:15:41.540Z,7.66
2022-11-12T16:18:47.356Z,7.64
2022-11-12T16:21:52.883Z,7.65
2022-11-12T16:24:59.782Z,7.59
2022-11-12T16:28:11.012Z,7.51
2022-11-12T16:31:16.495Z,7.47
2022-11-12T16:34:22.238Z,7.35
2022-11-12T16:37:28.030Z,7.17
2022-11-12T16:40:35.418Z,7.07
2022-11-12T16:43:41.417Z,7.02
2022-11-12T16:46:47.089Z,6.96
2022-11-12T16:49:52.280Z,6.96
2022-11-12T16:52:57.932Z,6.90
2022-11-12T16:56:04.914Z,6.82
2022-11-12T16:59:14.329Z,6.81
2022-11-12T17:02:19.941Z,6.79
2022-11-12T17:05:27.090Z,6.67
2022-11-12T17:08:34.196Z,6.57
2022-11-12T17:11:40.821Z,6.40
2022-11-12T17:14:46.383Z,6.24
2022-11-12T17:17:54.351Z,6.16
2022-11-12T17:21:08.941Z,6.23
2022-11-12T17:24:14.903Z,6.07
2022-11-12T17:27:21.784Z,5.98
2022-11-12T17:30:27.619Z,6.03
2022-11-12T17:33:33.410Z,5.87
2022-11-12T17:36:43.569Z,5.82
2022-11-12T17:39:49.380Z,5.76
2022-11-12T17:42:56.312Z,5.70
2022-11-12T17:46:02.203Z,5.64
2022-11-12T17:49:07.563Z,5.69
2022-11-12T17:52:13.164Z,5.72
2022-11-12T17:55:18.961Z,5.74
2022-11-12T17:58:26.522Z,5.81
2022-11-12T18:01:34.994Z,5.87
2022-11-12T18:04:40.814Z,5.89
2022-11-12T18:07:46.126Z,5.97
2022-11-12T18:10:52.664Z,6.07
2022-11-12T18:13:59.347Z,6.17
2022-11-12T18:17:05.124Z,6.28
2022-11-12T18:20:11.123Z,6.35
2022-11-12T18:23:16.880Z,6.42
2022-11-12T18:26:22.659Z,6.50
2022-11-12T18:29:29.468Z,6.56
2022-11-12T18:32:35.263Z,6.67
2022-11-12T18:35:40.896Z,6.78
2022-11-12T18:38:50.074Z,6.87
2022-11-12T18:41:56.038Z,6.92
2022-11-12T18:45:03.082Z,6.92
2022-11-12T18:48:09.111Z,6.23
2022-11-12T18:51:16.777Z,7.02
2022-11-12T18:54:23.784Z,7.02
2022-11-12T18:57:29.606Z,6.60
2022-11-12T19:00:37.953Z,7.10
2022-11-12T19:03:44.349Z,7.01
2022-11-12T19:06:50.083Z,7.35
2022-11-12T19:09:55.773Z,7.37
2022-11-12T19:13:03.982Z,7.32
2022-11-12T19:16:14.300Z,7.28
2022-11-12T19:19:19.874Z,7.34
2022-11-12T19:22:25.571Z,7.35
2022-11-12T19:25:31.205Z,7.35
2022-11-12T19:28:36.745Z,7.46
2022-11-12T19:31:43.701Z,7.56
2022-11-12T19:34:49.250Z,7.77
2022-11-12T19:37:54.836Z,7.72
2022-11-12T19:41:04.482Z,7.69
2022-11-12T19:44:10.013Z,7.74
2022-11-12T19:47:17.346Z,7.72
2022-11-12T19:50:24.984Z,7.75
2022-11-12T19:53:39.055Z,7.70
2022-11-12T19:56:44.258Z,7.74
2022-11-12T19:59:49.856Z,7.72
2022-11-12T20:02:59.839Z,7.78
2022-11-12T20:06:09.087Z,7.77
2022-11-12T20:09:14.755Z,7.87
2022-11-12T20:12:20.264Z,7.89
2022-11-12T20:15:26.053Z,7.96
2022-11-12T20:18:33.049Z,7.84
2022-11-12T20:21:38.776Z,7.88
2022-11-12T20:24:44.340Z,7.87
2022-11-12T20:27:49.968Z,7.97
2022-11-12T20:31:01.395Z,7.96
2022-11-12T20:34:08.116Z,7.98
2022-11-12T20:37:13.463Z,8.07
2022-11-12T20:40:19.042Z,7.96
2022-11-12T20:43:29.003Z,8.03
2022-11-12T20:46:35.024Z,8.05
2022-11-12T20:49:41.983Z,8.01
2022-11-12T20:52:47.644Z,8.01
2022-11-12T20:55:53.420Z,8.08
2022-11-12T20:58:59.789Z,8.06
2022-11-12T21:02:05.160Z,8.19
2022-11-12T21:05:12.176Z,8.22
2022-11-12T21:08:17.500Z,8.18
2022-11-12T21:11:24.026Z,8.16
2022-11-12T21:14:29.719Z,8.37
2022-11-12T21:17:35.187Z,8.28
2022-11-12T21:20:42.534Z,8.27
2022-11-12T21:23:49.372Z,8.23
2022-11-12T21:26:55.332Z,8.20
2022-11-12T21:30:00.924Z,8.25
2022-11-12T21:33:07.231Z,8.29
2022-11-12T21:36:16.512Z,8.33
2022-11-12T21:39:22.036Z,8.38
2022-11-12T21:42:28.118Z,8.33
2022-11-12T21:45:33.913Z,8.31
2022-11-12T21:48:39.504Z,8.35
2022-11-12T21:51:46.520Z,8.40
2022-11-12T21:54:52.268Z,8.35
2022-11-12T21:57:58.709Z,8.43
2022-11-12T22:01:09.048Z,8.50
2022-11-12T22:04:18.297Z,8.50
2022-11-12T22:07:25.293Z,8.47
2022-11-12T22:10:30.712Z,8.48
2022-11-12T22:13:37.594Z,8.51
2022-11-12T22:16:43.298Z,8.54
2022-11-12T22:19:48.442Z,8.51
2022-11-12T22:22:55.044Z,8.70
2022-11-12T22:26:01.191Z,8.63
2022-11-12T22:29:06.673Z,8.60
2022-11-12T22:32:11.735Z,8.64
2022-11-12T22:35:17.609Z,8.65
2022-11-12T22:38:24.873Z,8.66
2022-11-12T22:41:32.476Z,8.63
2022-11-12T22:44:37.967Z,8.62
2022-11-12T22:47:43.705Z,8.64
2022-11-12T22:50:49.512Z,8.65
2022-11-12T22:53:58.495Z,8.68
2022-11-12T22:57:03.967Z,8.68
2022-11-12T23:00:12.680Z,8.65
2022-11-12T23:03:18.051Z,8.69
2022-11-12T23:06:24.761Z,8.72
2022-11-12T23:09:31.760Z,8.78
2022-11-12T23:12:37.422Z,8.73
2022-11-12T23:15:43.747Z,8.72
2022-11-12T23:18:49.593Z,8.72
2022-11-12T23:21:55.246Z,8.77
2022-11-12T23:25:01.902Z,8.76
2022-11-12T23:28:08.168Z,8.73
2022-11-12T23:31:15.901Z,8.78
2022-11-12T23:34:21.523Z,8.79
2022-11-12T23:37:26.938Z,8.78
2022-11-12T23:40:34.060Z,8.78
2022-11-12T23:43:40.173Z,8.57
2022-11-12T23:46:45.625Z,8.80
2022-11-12T23:49:51.423Z,8.78
2022-11-12T23:52:57.192Z,8.76
2022-11-12T23:56:05.810Z,8.85
2022-11-12T23:59:11.291Z,8.83
